Time;durP1;ratioP1;P1;durP2;ratioP2;P2;SDS_P1;SDS_P2;PMS_P1;PMS_P2;Temp;Humidity;BMP_temperature;BMP_pressure;BME280_temperature;BME280_humidity;BME280_pressure;Samples;Min_cycle;Max_cycle;Signal;HPM_P1;HPM_P2
2023/03/15 00:55:14;;;;;;;4.03;1.30;;;;;;;;;;6220688;22;1407367;-93
2023/03/15 00:58:21;;;;;;;5.27;1.63;;;;;;;;;;6241892;23;20194;-93
2023/03/15 01:01:43;;;;;;;5.17;1.50;;;;;;;;;;6240606;23;20626;-90
2023/03/15 01:04:50;;;;;;;5.60;1.27;;;;;;;;;;6240272;23;20167;-91
2023/03/15 01:07:55;;;;;;;3.67;1.40;;;;;;;;;;6241684;23;20178;-92
2023/03/15 01:11:04;;;;;;;2.97;1.03;;;;;;;;;;6240942;23;20167;-90
2023/03/15 01:14:10;;;;;;;4.03;1.63;;;;;;;;;;6239005;23;20174;-91
2023/03/15 01:17:15;;;;;;;2.17;1.07;;;;;;;;;;6238696;23;20284;-92
2023/03/15 01:20:27;;;;;;;5.40;1.30;;;;;;;;;;6240479;23;20240;-92
2023/03/15 01:23:32;;;;;;;3.63;1.40;;;;;;;;;;6239453;23;20178;-91
2023/03/15 01:26:39;;;;;;;4.93;1.47;;;;;;;;;;6239005;23;20174;-92
2023/03/15 01:29:44;;;;;;;5.57;1.20;;;;;;;;;;6235416;23;20222;-90
2023/03/15 01:32:51;;;;;;;5.30;1.30;;;;;;;;;;6232495;23;20689;-92
2023/03/15 01:36:00;;;;;;;4.60;1.17;;;;;;;;;;6233339;23;20630;-92
2023/03/15 01:39:05;;;;;;;3.90;1.30;;;;;;;;;;6233321;23;20171;-91
2023/03/15 01:42:20;;;;;;;4.43;1.50;;;;;;;;;;6233078;23;20183;-90
2023/03/15 01:45:44;;;;;;;7.97;1.50;;;;;;;;;;6232272;23;20175;-88
2023/03/15 01:48:52;;;;;;;4.50;1.20;;;;;;;;;;6231832;23;20151;-91
2023/03/15 01:52:03;;;;;;;4.70;1.60;;;;;;;;;;6233638;23;20190;-91
2023/03/15 01:55:21;;;;;;;3.40;1.47;;;;;;;;;;6234228;23;20195;-91
2023/03/15 01:58:38;;;;;;;4.93;1.47;;;;;;;;;;6231913;23;20194;-89
2023/03/15 02:01:45;;;;;;;6.50;1.37;;;;;;;;;;6231551;23;20175;-92
2023/03/15 02:04:53;;;;;;;5.30;1.57;;;;;;;;;;6232280;23;20506;-89
2023/03/15 02:07:59;;;;;;;3.43;1.27;;;;;;;;;;6232998;23;20492;-90
2023/03/15 02:11:08;;;;;;;6.20;1.87;;;;;;;;;;6231458;23;20242;-93
2023/03/15 02:14:16;;;;;;;4.50;1.47;;;;;;;;;;6230603;23;20218;-88
2023/03/15 02:17:25;;;;;;;4.20;1.60;;;;;;;;;;6230841;23;20174;-91
2023/03/15 02:24:20;;;;;;;5.83;1.20;;;;;;;;;;6231188;23;20180;-88
2023/03/15 02:27:29;;;;;;;7.33;1.47;;;;;;;;;;6230859;23;20230;-89
2023/03/15 02:30:35;;;;;;;5.97;1.40;;;;;;;;;;6231999;23;20179;-92
2023/03/15 02:33:43;;;;;;;3.40;1.20;;;;;;;;;;6232380;23;20175;-93
2023/03/15 02:36:49;;;;;;;2.47;1.20;;;;;;;;;;6231883;23;20166;-90
2023/03/15 02:39:54;;;;;;;2.33;1.20;;;;;;;;;;6229945;23;20223;-89
2023/03/15 02:43:03;;;;;;;2.43;1.13;;;;;;;;;;6230544;23;20172;-91
2023/03/15 02:46:09;;;;;;;4.40;1.17;;;;;;;;;;6231363;23;20183;-90
2023/03/15 02:49:15;;;;;;;6.10;1.60;;;;;;;;;;6230997;23;20170;-93
2023/03/15 02:52:21;;;;;;;6.20;1.00;;;;;;;;;;6230903;23;20186;-92
2023/03/15 02:55:26;;;;;;;2.87;1.10;;;;;;;;;;6231205;23;20256;-90
2023/03/15 02:58:32;;;;;;;3.63;1.30;;;;;;;;;;6230807;23;20316;-90
2023/03/15 03:02:13;;;;;;;3.77;1.43;;;;;;;;;;6232028;23;20155;-91
2023/03/15 03:05:20;;;;;;;4.27;1.40;;;;;;;;;;6232756;23;20168;-91
2023/03/15 03:08:25;;;;;;;2.83;1.40;;;;;;;;;;6230372;23;20167;-91
2023/03/15 03:11:31;;;;;;;3.80;1.27;;;;;;;;;;6229712;23;20159;-89
2023/03/15 03:14:38;;;;;;;7.20;1.63;;;;;;;;;;6230789;23;20203;-91
2023/03/15 03:17:49;;;;;;;6.00;1.60;;;;;;;;;;6232355;23;20194;-93
2023/03/15 03:21:03;;;;;;;3.00;1.40;;;;;;;;;;6230589;23;20669;-90
2023/03/15 03:24:09;;;;;;;5.90;1.43;;;;;;;;;;6231403;23;20163;-90
2023/03/15 03:27:15;;;;;;;9.53;1.40;;;;;;;;;;6230676;23;20172;-91
2023/03/15 03:30:24;;;;;;;2.63;1.20;;;;;;;;;;6231612;23;20167;-93
2023/03/15 03:33:30;;;;;;;8.30;1.60;;;;;;;;;;6231727;23;20155;-93
2023/03/15 03:36:35;;;;;;;5.90;1.43;;;;;;;;;;6230176;23;20167;-91
2023/03/15 03:39:41;;;;;;;5.70;2.23;;;;;;;;;;6230322;23;20175;-89
2023/03/15 03:42:45;;;;;;;5.73;2.13;;;;;;;;;;6229862;23;20627;-90
2023/03/15 03:45:53;;;;;;;3.23;1.40;;;;;;;;;;6232251;23;20151;-92
2023/03/15 03:48:59;;;;;;;3.67;1.77;;;;;;;;;;6232857;23;20605;-93
2023/03/15 03:52:06;;;;;;;6.77;1.53;;;;;;;;;;6232293;23;20230;-93
2023/03/15 03:55:12;;;;;;;4.70;1.70;;;;;;;;;;6231501;23;20266;-91
2023/03/15 03:58:18;;;;;;;5.43;1.60;;;;;;;;;;6231263;23;20214;-90
2023/03/15 04:01:30;;;;;;;8.13;1.90;;;;;;;;;;6234951;23;20183;-91
2023/03/15 04:04:39;;;;;;;2.57;1.67;;;;;;;;;;6231962;23;20171;-91
2023/03/15 04:07:47;;;;;;;3.77;1.43;;;;;;;;;;6231698;23;20217;-91
2023/03/15 04:10:55;;;;;;;6.70;1.90;;;;;;;;;;6229519;23;20174;-91
2023/03/15 04:14:03;;;;;;;2.57;1.50;;;;;;;;;;6230246;23;20238;-90
2023/03/15 04:17:11;;;;;;;3.77;1.50;;;;;;;;;;6230300;23;20167;-91
2023/03/15 04:20:21;;;;;;;5.13;1.60;;;;;;;;;;6230979;23;20236;-94
2023/03/15 04:23:26;;;;;;;1.87;1.40;;;;;;;;;;6231278;23;20171;-92
2023/03/15 04:27:07;;;;;;;3.70;1.70;;;;;;;;;;6200953;23;20712;-91
2023/03/15 04:30:25;;;;;;;6.03;1.73;;;;;;;;;;6230470;23;20183;-90
2023/03/15 04:33:52;;;;;;;3.63;1.50;;;;;;;;;;6232767;23;20247;-94
2023/03/15 04:37:28;;;;;;;5.87;1.50;;;;;;;;;;6230570;23;20175;-90
2023/03/15 04:40:51;;;;;;;3.03;1.73;;;;;;;;;;6232205;23;20202;-89
2023/03/15 04:44:15;;;;;;;5.40;1.80;;;;;;;;;;6233143;23;20231;-90
2023/03/15 04:47:50;;;;;;;4.60;1.67;;;;;;;;;;6212376;23;20243;-89
2023/03/15 04:51:26;;;;;;;3.73;1.40;;;;;;;;;;6194614;23;20178;-91
2023/03/15 04:54:52;;;;;;;2.73;1.20;;;;;;;;;;6234697;23;20202;-91
2023/03/15 04:58:19;;;;;;;4.90;1.20;;;;;;;;;;6233683;23;20191;-89
2023/03/15 05:01:49;;;;;;;2.47;1.10;;;;;;;;;;6232894;23;20179;-90
2023/03/15 05:05:07;;;;;;;3.50;1.17;;;;;;;;;;6234752;23;20163;-89
2023/03/15 05:08:25;;;;;;;2.07;0.90;;;;;;;;;;6235564;23;20170;-91
2023/03/15 05:11:51;;;;;;;4.13;1.20;;;;;;;;;;6234990;23;20167;-91
2023/03/15 05:15:35;;;;;;;5.07;0.90;;;;;;;;;;6236847;23;20179;-91
2023/03/15 05:19:10;;;;;;;3.63;1.17;;;;;;;;;;6235080;23;20251;-88
2023/03/15 05:22:44;;;;;;;6.33;1.47;;;;;;;;;;6236069;23;20242;-91
2023/03/15 05:26:04;;;;;;;3.60;1.20;;;;;;;;;;6236370;23;20171;-91
2023/03/15 05:29:29;;;;;;;8.30;1.80;;;;;;;;;;6234046;23;20175;-90
2023/03/15 05:32:49;;;;;;;4.40;1.57;;;;;;;;;;6234083;23;20151;-90
2023/03/15 05:36:14;;;;;;;8.17;1.90;;;;;;;;;;6235854;23;20220;-92
2023/03/15 05:39:41;;;;;;;4.40;1.43;;;;;;;;;;6230227;23;20258;-91
2023/03/15 05:43:01;;;;;;;8.63;1.63;;;;;;;;;;6234013;23;20163;-88
2023/03/15 05:46:24;;;;;;;8.07;1.87;;;;;;;;;;6234372;23;20167;-93
2023/03/15 05:49:45;;;;;;;8.67;1.90;;;;;;;;;;6234537;23;20179;-90
2023/03/15 05:53:06;;;;;;;6.60;1.90;;;;;;;;;;6234853;23;20171;-92
2023/03/15 05:56:34;;;;;;;10.10;1.80;;;;;;;;;;6235018;23;20271;-90
2023/03/15 06:00:09;;;;;;;8.80;1.90;;;;;;;;;;6233692;23;20170;-91
2023/03/15 06:03:25;;;;;;;5.70;1.20;;;;;;;;;;6235890;23;20494;-90
2023/03/15 06:06:38;;;;;;;8.67;1.70;;;;;;;;;;6235301;23;20167;-90
2023/03/15 06:09:46;;;;;;;10.27;1.50;;;;;;;;;;6235488;23;20174;-90
2023/03/15 06:12:54;;;;;;;10.67;1.60;;;;;;;;;;6234797;23;20194;-91
2023/03/15 06:16:03;;;;;;;9.90;1.90;;;;;;;;;;6233295;23;20171;-90
2023/03/15 06:19:10;;;;;;;8.43;1.97;;;;;;;;;;6232814;23;20195;-89
2023/03/15 06:25:47;;;;;;;6.93;1.60;;;;;;;;;;6234431;23;20222;-91
2023/03/15 06:28:53;;;;;;;11.47;2.73;;;;;;;;;;6233217;23;20219;-91
2023/03/15 06:32:00;;;;;;;12.10;2.50;;;;;;;;;;6234464;23;20208;-90
2023/03/15 06:35:07;;;;;;;10.87;1.90;;;;;;;;;;6233512;23;20151;-89
2023/03/15 06:38:14;;;;;;;9.93;2.03;;;;;;;;;;6235489;23;20193;-91
2023/03/15 06:41:20;;;;;;;11.37;2.33;;;;;;;;;;6234945;23;20418;-91
2023/03/15 06:44:28;;;;;;;10.63;2.67;;;;;;;;;;6233957;23;20167;-89
2023/03/15 06:47:41;;;;;;;13.27;2.67;;;;;;;;;;6233147;23;20163;-91
2023/03/15 06:50:46;;;;;;;6.80;1.73;;;;;;;;;;6233398;23;20155;-91
2023/03/15 06:53:52;;;;;;;9.00;2.07;;;;;;;;;;6235073;23;20243;-91
2023/03/15 06:56:58;;;;;;;12.50;1.93;;;;;;;;;;6234308;23;20151;-90
2023/03/15 07:00:10;;;;;;;14.47;2.27;;;;;;;;;;6232235;23;20326;-91
2023/03/15 07:03:37;;;;;;;8.67;1.63;;;;;;;;;;6232762;23;20171;-91
2023/03/15 07:06:47;;;;;;;10.07;2.53;;;;;;;;;;6233543;23;20164;-90
2023/03/15 07:09:53;;;;;;;13.87;2.63;;;;;;;;;;6234433;23;20219;-92
2023/03/15 07:12:59;;;;;;;10.87;2.37;;;;;;;;;;6235152;23;20167;-91
2023/03/15 07:16:05;;;;;;;13.13;2.80;;;;;;;;;;6235660;23;20175;-91
2023/03/15 07:19:11;;;;;;;10.70;2.27;;;;;;;;;;6237865;23;20191;-91
2023/03/15 07:22:21;;;;;;;8.23;1.90;;;;;;;;;;6235289;23;20220;-89
2023/03/15 07:25:27;;;;;;;16.90;2.70;;;;;;;;;;6235834;23;20207;-91
2023/03/15 07:28:32;;;;;;;11.47;2.20;;;;;;;;;;6235124;23;20222;-90
2023/03/15 07:31:38;;;;;;;13.47;2.63;;;;;;;;;;6234417;23;20151;-89
2023/03/15 07:34:46;;;;;;;9.27;2.67;;;;;;;;;;6237672;23;20167;-89
2023/03/15 07:38:00;;;;;;;5.90;2.20;;;;;;;;;;6235616;23;20156;-91
2023/03/15 13:34:45;;;;;;;13.77;4.70;;;;;;;;;;6146291;23;20534;31
2023/03/15 13:38:00;;;;;;;6.95;1.83;;;;;;;;;;6204657;23;20167;-92
2023/03/15 13:41:07;;;;;;;7.18;2.05;;;;;;;;;;6203572;23;20235;-87
2023/03/15 13:44:18;;;;;;;11.23;2.28;;;;;;;;;;6204066;23;20243;-90
2023/03/15 13:47:23;;;;;;;3.42;1.77;;;;;;;;;;6204740;23;20188;-91
2023/03/15 13:50:29;;;;;;;6.00;2.17;;;;;;;;;;6203761;23;20172;-92
2023/03/15 13:53:42;;;;;;;6.97;1.95;;;;;;;;;;6203689;23;20211;-94
2023/03/15 13:56:56;;;;;;;5.43;2.10;;;;;;;;;;6204367;23;20156;-90
2023/03/15 14:00:09;;;;;;;4.72;2.00;;;;;;;;;;6203145;23;20554;-90
2023/03/15 14:03:17;;;;;;;7.95;2.20;;;;;;;;;;6203130;23;20180;-89
2023/03/15 14:06:26;;;;;;;6.35;2.10;;;;;;;;;;6203841;23;20614;-91
2023/03/15 14:09:33;;;;;;;5.57;1.75;;;;;;;;;;6204265;23;20172;-90
2023/03/15 14:12:38;;;;;;;10.35;2.05;;;;;;;;;;6204267;23;20240;-90
2023/03/15 14:15:49;;;;;;;6.07;1.70;;;;;;;;;;6203425;23;20180;-90
2023/03/15 14:18:54;;;;;;;7.03;1.92;;;;;;;;;;6202337;23;20270;-92
2023/03/15 14:22:27;;;;;;;9.40;1.90;;;;;;;;;;6203630;23;20175;-92
2023/03/15 14:25:37;;;;;;;5.97;1.85;;;;;;;;;;6201074;23;20200;-91
2023/03/15 14:28:42;;;;;;;6.28;1.90;;;;;;;;;;6202126;23;20172;-92
2023/03/15 14:31:49;;;;;;;6.32;1.52;;;;;;;;;;6203684;23;20172;-95
2023/03/15 14:35:00;;;;;;;7.93;2.00;;;;;;;;;;6208032;23;20190;-91
2023/03/15 14:38:08;;;;;;;7.22;1.90;;;;;;;;;;6214560;23;20175;-92
2023/03/15 14:41:24;;;;;;;4.60;1.77;;;;;;;;;;6214670;22;20199;-92
2023/03/15 14:44:31;;;;;;;5.78;1.77;;;;;;;;;;6217445;22;20246;-93
